sensor_id;sensor_type;location;lat;lon;timestamp;P1;durP1;ratioP1;P2;durP2;ratioP2
78927;SDS011;68322;22.726;113.540;2023-09-30T00:02:20;13.02;;;5.07;;
78927;SDS011;68322;22.726;113.540;2023-09-30T00:04:47;11.70;;;4.93;;
78927;SDS011;68322;22.726;113.540;2023-09-30T00:07:14;12.40;;;6.53;;
78927;SDS011;68322;22.726;113.540;2023-09-30T00:09:41;10.80;;;5.40;;
78927;SDS011;68322;22.726;113.540;2023-09-30T00:12:08;12.88;;;6.00;;
78927;SDS011;68322;22.726;113.540;2023-09-30T00:14:35;12.52;;;5.70;;
78927;SDS011;68322;22.726;113.540;2023-09-30T00:17:03;8.93;;;5.20;;
78927;SDS011;68322;22.726;113.540;2023-09-30T00:19:30;7.88;;;4.65;;
78927;SDS011;68322;22.726;113.540;2023-09-30T00:21:58;8.80;;;4.47;;
78927;SDS011;68322;22.726;113.540;2023-09-30T00:24:27;10.57;;;4.75;;
78927;SDS011;68322;22.726;113.540;2023-09-30T00:26:54;7.53;;;4.32;;
78927;SDS011;68322;22.726;113.540;2023-09-30T00:29:21;9.60;;;4.95;;
78927;SDS011;68322;22.726;113.540;2023-09-30T00:31:48;6.95;;;3.90;;
78927;SDS011;68322;22.726;113.540;2023-09-30T00:34:15;9.10;;;3.65;;
78927;SDS011;68322;22.726;113.540;2023-09-30T00:36:42;13.77;;;6.82;;
78927;SDS011;68322;22.726;113.540;2023-09-30T00:39:08;10.55;;;5.20;;
78927;SDS011;68322;22.726;113.540;2023-09-30T00:41:35;6.80;;;4.88;;
78927;SDS011;68322;22.726;113.540;2023-09-30T00:44:02;9.93;;;4.22;;
78927;SDS011;68322;22.726;113.540;2023-09-30T00:46:30;7.65;;;4.30;;
78927;SDS011;68322;22.726;113.540;2023-09-30T00:48:57;11.48;;;4.80;;
78927;SDS011;68322;22.726;113.540;2023-09-30T00:51:24;8.45;;;4.53;;
78927;SDS011;68322;22.726;113.540;2023-09-30T00:56:18;6.60;;;4.22;;
78927;SDS011;68322;22.726;113.540;2023-09-30T00:58:46;15.43;;;6.10;;
78927;SDS011;68322;22.726;113.540;2023-09-30T01:01:16;12.55;;;4.75;;
78927;SDS011;68322;22.726;113.540;2023-09-30T01:03:44;8.35;;;4.53;;
78927;SDS011;68322;22.726;113.540;2023-09-30T01:06:11;8.30;;;4.68;;
78927;SDS011;68322;22.726;113.540;2023-09-30T01:08:38;14.65;;;5.03;;
78927;SDS011;68322;22.726;113.540;2023-09-30T01:11:05;7.88;;;5.10;;
78927;SDS011;68322;22.726;113.540;2023-09-30T01:13:32;6.82;;;4.22;;
78927;SDS011;68322;22.726;113.540;2023-09-30T01:16:03;8.55;;;4.70;;
78927;SDS011;68322;22.726;113.540;2023-09-30T01:18:31;8.57;;;5.25;;
78927;SDS011;68322;22.726;113.540;2023-09-30T01:21:01;11.13;;;4.80;;
78927;SDS011;68322;22.726;113.540;2023-09-30T01:23:29;7.88;;;4.40;;
78927;SDS011;68322;22.726;113.540;2023-09-30T01:25:56;9.20;;;5.35;;
78927;SDS011;68322;22.726;113.540;2023-09-30T01:28:24;6.68;;;4.88;;
78927;SDS011;68322;22.726;113.540;2023-09-30T01:33:18;8.88;;;4.50;;
78927;SDS011;68322;22.726;113.540;2023-09-30T01:35:45;13.05;;;5.68;;
78927;SDS011;68322;22.726;113.540;2023-09-30T01:38:11;11.68;;;4.93;;
78927;SDS011;68322;22.726;113.540;2023-09-30T01:40:38;9.07;;;4.28;;
78927;SDS011;68322;22.726;113.540;2023-09-30T01:43:05;8.38;;;4.97;;
78927;SDS011;68322;22.726;113.540;2023-09-30T01:45:32;9.45;;;4.63;;
78927;SDS011;68322;22.726;113.540;2023-09-30T01:47:58;7.40;;;4.63;;
78927;SDS011;68322;22.726;113.540;2023-09-30T01:50:25;7.68;;;4.57;;
78927;SDS011;68322;22.726;113.540;2023-09-30T01:52:52;10.07;;;4.60;;
78927;SDS011;68322;22.726;113.540;2023-09-30T01:55:19;8.32;;;4.88;;
78927;SDS011;68322;22.726;113.540;2023-09-30T01:57:47;10.52;;;4.85;;
78927;SDS011;68322;22.726;113.540;2023-09-30T02:00:14;10.90;;;5.40;;
78927;SDS011;68322;22.726;113.540;2023-09-30T02:02:42;23.73;;;10.38;;
78927;SDS011;68322;22.726;113.540;2023-09-30T02:05:09;12.45;;;5.75;;
78927;SDS011;68322;22.726;113.540;2023-09-30T02:07:36;12.43;;;4.90;;
78927;SDS011;68322;22.726;113.540;2023-09-30T02:10:06;12.35;;;4.93;;
78927;SDS011;68322;22.726;113.540;2023-09-30T02:12:33;11.00;;;4.88;;
78927;SDS011;68322;22.726;113.540;2023-09-30T02:15:05;9.57;;;5.32;;
78927;SDS011;68322;22.726;113.540;2023-09-30T02:17:32;8.88;;;5.63;;
78927;SDS011;68322;22.726;113.540;2023-09-30T02:19:59;8.85;;;5.22;;
78927;SDS011;68322;22.726;113.540;2023-09-30T02:22:29;9.40;;;5.28;;
78927;SDS011;68322;22.726;113.540;2023-09-30T02:27:22;11.32;;;5.45;;
78927;SDS011;68322;22.726;113.540;2023-09-30T02:29:49;6.65;;;4.55;;
78927;SDS011;68322;22.726;113.540;2023-09-30T02:32:16;8.75;;;5.15;;
78927;SDS011;68322;22.726;113.540;2023-09-30T02:34:43;10.85;;;5.32;;
78927;SDS011;68322;22.726;113.540;2023-09-30T02:37:10;7.90;;;4.70;;
78927;SDS011;68322;22.726;113.540;2023-09-30T02:39:36;11.45;;;4.90;;
78927;SDS011;68322;22.726;113.540;2023-09-30T02:42:03;12.43;;;4.43;;
78927;SDS011;68322;22.726;113.540;2023-09-30T02:44:30;8.63;;;5.30;;
78927;SDS011;68322;22.726;113.540;2023-09-30T02:46:57;10.65;;;5.32;;
78927;SDS011;68322;22.726;113.540;2023-09-30T02:49:25;8.60;;;5.13;;
78927;SDS011;68322;22.726;113.540;2023-09-30T02:51:51;12.70;;;5.30;;
78927;SDS011;68322;22.726;113.540;2023-09-30T02:54:19;10.88;;;5.30;;
78927;SDS011;68322;22.726;113.540;2023-09-30T02:59:13;8.73;;;5.35;;
78927;SDS011;68322;22.726;113.540;2023-09-30T03:01:42;8.60;;;5.68;;
78927;SDS011;68322;22.726;113.540;2023-09-30T03:04:08;11.70;;;5.82;;
78927;SDS011;68322;22.726;113.540;2023-09-30T03:06:38;14.23;;;5.80;;
78927;SDS011;68322;22.726;113.540;2023-09-30T03:09:05;9.77;;;5.80;;
78927;SDS011;68322;22.726;113.540;2023-09-30T03:11:31;11.18;;;5.07;;
78927;SDS011;68322;22.726;113.540;2023-09-30T03:13:59;8.70;;;5.32;;
78927;SDS011;68322;22.726;113.540;2023-09-30T03:16:26;11.27;;;5.55;;
78927;SDS011;68322;22.726;113.540;2023-09-30T03:18:53;10.10;;;5.60;;
78927;SDS011;68322;22.726;113.540;2023-09-30T03:21:21;11.55;;;6.30;;
78927;SDS011;68322;22.726;113.540;2023-09-30T03:23:47;12.20;;;5.85;;
78927;SDS011;68322;22.726;113.540;2023-09-30T03:26:14;12.93;;;5.82;;
78927;SDS011;68322;22.726;113.540;2023-09-30T03:28:41;20.63;;;7.35;;
78927;SDS011;68322;22.726;113.540;2023-09-30T03:31:08;24.15;;;7.20;;
78927;SDS011;68322;22.726;113.540;2023-09-30T03:33:37;16.10;;;6.97;;
78927;SDS011;68322;22.726;113.540;2023-09-30T03:36:04;12.30;;;5.90;;
78927;SDS011;68322;22.726;113.540;2023-09-30T03:38:34;8.57;;;5.88;;
78927;SDS011;68322;22.726;113.540;2023-09-30T03:41:01;14.10;;;6.68;;
78927;SDS011;68322;22.726;113.540;2023-09-30T03:43:28;11.45;;;6.90;;
78927;SDS011;68322;22.726;113.540;2023-09-30T03:45:56;8.00;;;5.95;;
78927;SDS011;68322;22.726;113.540;2023-09-30T03:48:23;10.55;;;6.63;;
78927;SDS011;68322;22.726;113.540;2023-09-30T03:50:51;9.80;;;6.60;;
78927;SDS011;68322;22.726;113.540;2023-09-30T03:53:19;11.25;;;7.13;;
78927;SDS011;68322;22.726;113.540;2023-09-30T03:55:46;10.20;;;6.85;;
78927;SDS011;68322;22.726;113.540;2023-09-30T03:58:13;13.75;;;7.65;;
78927;SDS011;68322;22.726;113.540;2023-09-30T04:00:40;9.27;;;7.35;;
78927;SDS011;68322;22.726;113.540;2023-09-30T04:03:07;12.32;;;7.13;;
78927;SDS011;68322;22.726;113.540;2023-09-30T04:05:34;13.23;;;7.70;;
78927;SDS011;68322;22.726;113.540;2023-09-30T04:10:28;12.95;;;7.72;;
78927;SDS011;68322;22.726;113.540;2023-09-30T04:12:55;10.00;;;7.28;;
78927;SDS011;68322;22.726;113.540;2023-09-30T04:15:22;9.93;;;7.07;;
78927;SDS011;68322;22.726;113.540;2023-09-30T04:17:49;10.75;;;7.45;;
78927;SDS011;68322;22.726;113.540;2023-09-30T04:20:19;14.15;;;7.88;;
78927;SDS011;68322;22.726;113.540;2023-09-30T04:22:48;9.90;;;6.82;;
78927;SDS011;68322;22.726;113.540;2023-09-30T04:25:16;11.32;;;7.40;;
78927;SDS011;68322;22.726;113.540;2023-09-30T04:27:46;11.55;;;8.18;;
78927;SDS011;68322;22.726;113.540;2023-09-30T04:30:13;9.07;;;6.93;;
78927;SDS011;68322;22.726;113.540;2023-09-30T04:32:40;9.45;;;6.90;;
78927;SDS011;68322;22.726;113.540;2023-09-30T04:35:07;13.55;;;7.82;;
78927;SDS011;68322;22.726;113.540;2023-09-30T04:37:34;11.30;;;7.20;;
78927;SDS011;68322;22.726;113.540;2023-09-30T04:40:05;11.90;;;8.00;;
78927;SDS011;68322;22.726;113.540;2023-09-30T04:42:43;9.05;;;7.40;;
78927;SDS011;68322;22.726;113.540;2023-09-30T04:45:12;10.10;;;7.57;;
78927;SDS011;68322;22.726;113.540;2023-09-30T04:47:45;10.23;;;7.18;;
78927;SDS011;68322;22.726;113.540;2023-09-30T04:50:14;14.43;;;6.65;;
78927;SDS011;68322;22.726;113.540;2023-09-30T04:52:41;9.65;;;7.22;;
78927;SDS011;68322;22.726;113.540;2023-09-30T04:55:11;11.93;;;7.65;;
78927;SDS011;68322;22.726;113.540;2023-09-30T04:57:41;10.40;;;7.28;;
78927;SDS011;68322;22.726;113.540;2023-09-30T05:00:12;14.60;;;7.60;;
78927;SDS011;68322;22.726;113.540;2023-09-30T05:05:06;10.18;;;7.95;;
78927;SDS011;68322;22.726;113.540;2023-09-30T05:07:34;15.80;;;8.32;;
78927;SDS011;68322;22.726;113.540;2023-09-30T05:10:04;10.88;;;7.60;;
78927;SDS011;68322;22.726;113.540;2023-09-30T05:12:33;11.40;;;7.22;;
78927;SDS011;68322;22.726;113.540;2023-09-30T05:15:01;10.88;;;7.28;;
78927;SDS011;68322;22.726;113.540;2023-09-30T05:17:33;10.65;;;7.20;;
78927;SDS011;68322;22.726;113.540;2023-09-30T05:19:59;10.25;;;7.55;;
78927;SDS011;68322;22.726;113.540;2023-09-30T05:22:26;16.70;;;8.13;;
78927;SDS011;68322;22.726;113.540;2023-09-30T05:24:53;13.23;;;7.72;;
78927;SDS011;68322;22.726;113.540;2023-09-30T05:27:21;10.93;;;7.57;;
78927;SDS011;68322;22.726;113.540;2023-09-30T05:29:48;13.55;;;8.25;;
78927;SDS011;68322;22.726;113.540;2023-09-30T05:32:15;12.75;;;8.20;;
78927;SDS011;68322;22.726;113.540;2023-09-30T05:34:44;10.70;;;7.18;;
78927;SDS011;68322;22.726;113.540;2023-09-30T05:37:12;10.13;;;7.43;;
78927;SDS011;68322;22.726;113.540;2023-09-30T05:39:39;9.77;;;7.50;;
78927;SDS011;68322;22.726;113.540;2023-09-30T05:42:06;10.88;;;7.82;;
78927;SDS011;68322;22.726;113.540;2023-09-30T05:44:33;11.57;;;8.30;;
78927;SDS011;68322;22.726;113.540;2023-09-30T05:46:59;10.50;;;7.88;;
78927;SDS011;68322;22.726;113.540;2023-09-30T05:49:29;11.98;;;8.00;;
78927;SDS011;68322;22.726;113.540;2023-09-30T05:51:57;10.50;;;7.53;;
78927;SDS011;68322;22.726;113.540;2023-09-30T05:54:23;10.63;;;7.10;;
78927;SDS011;68322;22.726;113.540;2023-09-30T05:56:50;13.93;;;7.75;;
78927;SDS011;68322;22.726;113.540;2023-09-30T05:59:18;12.52;;;7.82;;
78927;SDS011;68322;22.726;113.540;2023-09-30T06:01:48;12.82;;;7.43;;
78927;SDS011;68322;22.726;113.540;2023-09-30T06:04:14;9.93;;;7.63;;
78927;SDS011;68322;22.726;113.540;2023-09-30T06:06:41;10.70;;;7.43;;
78927;SDS011;68322;22.726;113.540;2023-09-30T06:09:10;11.35;;;7.40;;
78927;SDS011;68322;22.726;113.540;2023-09-30T06:11:37;11.20;;;8.10;;
78927;SDS011;68322;22.726;113.540;2023-09-30T06:14:04;13.48;;;7.75;;
78927;SDS011;68322;22.726;113.540;2023-09-30T06:16:32;10.45;;;8.00;;
78927;SDS011;68322;22.726;113.540;2023-09-30T06:19:00;11.55;;;7.20;;
78927;SDS011;68322;22.726;113.540;2023-09-30T06:21:28;10.48;;;7.72;;
78927;SDS011;68322;22.726;113.540;2023-09-30T06:23:56;11.68;;;7.53;;
78927;SDS011;68322;22.726;113.540;2023-09-30T06:26:23;12.35;;;7.10;;
78927;SDS011;68322;22.726;113.540;2023-09-30T06:28:54;10.27;;;7.63;;
78927;SDS011;68322;22.726;113.540;2023-09-30T06:31:22;10.73;;;7.00;;
78927;SDS011;68322;22.726;113.540;2023-09-30T06:33:50;11.98;;;8.02;;
78927;SDS011;68322;22.726;113.540;2023-09-30T06:36:18;10.50;;;8.15;;
78927;SDS011;68322;22.726;113.540;2023-09-30T06:38:46;11.48;;;7.65;;
78927;SDS011;68322;22.726;113.540;2023-09-30T06:41:16;11.68;;;7.82;;
78927;SDS011;68322;22.726;113.540;2023-09-30T06:43:43;9.52;;;7.70;;
78927;SDS011;68322;22.726;113.540;2023-09-30T06:46:10;10.30;;;7.03;;
78927;SDS011;68322;22.726;113.540;2023-09-30T06:48:40;11.48;;;7.57;;
78927;SDS011;68322;22.726;113.540;2023-09-30T06:51:06;9.77;;;7.65;;
78927;SDS011;68322;22.726;113.540;2023-09-30T06:53:33;9.50;;;6.82;;
78927;SDS011;68322;22.726;113.540;2023-09-30T06:56:04;10.60;;;7.10;;
78927;SDS011;68322;22.726;113.540;2023-09-30T06:58:31;9.43;;;7.13;;
78927;SDS011;68322;22.726;113.540;2023-09-30T07:00:58;10.95;;;6.97;;
78927;SDS011;68322;22.726;113.540;2023-09-30T07:03:25;13.98;;;7.05;;
78927;SDS011;68322;22.726;113.540;2023-09-30T07:05:54;10.35;;;6.93;;
78927;SDS011;68322;22.726;113.540;2023-09-30T07:08:21;10.65;;;7.88;;
78927;SDS011;68322;22.726;113.540;2023-09-30T07:10:49;12.98;;;7.60;;
78927;SDS011;68322;22.726;113.540;2023-09-30T07:13:18;11.65;;;6.90;;
78927;SDS011;68322;22.726;113.540;2023-09-30T07:15:44;12.57;;;7.53;;
78927;SDS011;68322;22.726;113.540;2023-09-30T07:18:13;8.75;;;7.10;;
78927;SDS011;68322;22.726;113.540;2023-09-30T07:20:40;8.93;;;6.65;;
78927;SDS011;68322;22.726;113.540;2023-09-30T07:23:07;11.77;;;7.90;;
78927;SDS011;68322;22.726;113.540;2023-09-30T07:25:34;11.52;;;8.40;;
78927;SDS011;68322;22.726;113.540;2023-09-30T07:28:01;10.07;;;7.85;;
78927;SDS011;68322;22.726;113.540;2023-09-30T07:30:28;14.80;;;7.95;;
78927;SDS011;68322;22.726;113.540;2023-09-30T07:32:55;9.60;;;7.63;;
78927;SDS011;68322;22.726;113.540;2023-09-30T07:35:23;10.38;;;7.97;;
78927;SDS011;68322;22.726;113.540;2023-09-30T07:40:20;12.45;;;8.07;;
78927;SDS011;68322;22.726;113.540;2023-09-30T07:42:47;14.77;;;8.02;;
78927;SDS011;68322;22.726;113.540;2023-09-30T07:45:17;12.75;;;7.22;;
78927;SDS011;68322;22.726;113.540;2023-09-30T07:47:45;13.70;;;8.00;;
78927;SDS011;68322;22.726;113.540;2023-09-30T07:50:14;14.90;;;9.05;;
78927;SDS011;68322;22.726;113.540;2023-09-30T07:52:41;14.57;;;7.53;;
78927;SDS011;68322;22.726;113.540;2023-09-30T07:55:09;13.25;;;7.75;;
78927;SDS011;68322;22.726;113.540;2023-09-30T07:57:36;11.85;;;7.55;;
78927;SDS011;68322;22.726;113.540;2023-09-30T08:00:04;13.40;;;7.93;;
78927;SDS011;68322;22.726;113.540;2023-09-30T08:02:35;11.18;;;7.68;;
78927;SDS011;68322;22.726;113.540;2023-09-30T08:05:02;9.52;;;8.18;;
78927;SDS011;68322;22.726;113.540;2023-09-30T08:07:31;11.25;;;8.05;;
78927;SDS011;68322;22.726;113.540;2023-09-30T08:09:58;13.35;;;8.35;;
78927;SDS011;68322;22.726;113.540;2023-09-30T08:12:26;10.50;;;8.57;;
78927;SDS011;68322;22.726;113.540;2023-09-30T08:14:53;13.85;;;8.18;;
78927;SDS011;68322;22.726;113.540;2023-09-30T08:17:21;13.20;;;8.50;;
78927;SDS011;68322;22.726;113.540;2023-09-30T08:19:48;10.13;;;7.78;;
78927;SDS011;68322;22.726;113.540;2023-09-30T08:22:15;13.00;;;8.18;;
78927;SDS011;68322;22.726;113.540;2023-09-30T08:24:41;12.32;;;8.20;;
78927;SDS011;68322;22.726;113.540;2023-09-30T08:27:11;10.77;;;8.18;;
78927;SDS011;68322;22.726;113.540;2023-09-30T08:29:41;11.82;;;7.72;;
78927;SDS011;68322;22.726;113.540;2023-09-30T08:32:07;10.13;;;7.97;;
78927;SDS011;68322;22.726;113.540;2023-09-30T08:37:02;10.68;;;8.15;;
78927;SDS011;68322;22.726;113.540;2023-09-30T08:39:29;11.85;;;9.18;;
78927;SDS011;68322;22.726;113.540;2023-09-30T08:41:56;12.60;;;9.15;;
78927;SDS011;68322;22.726;113.540;2023-09-30T08:44:23;12.07;;;9.20;;
78927;SDS011;68322;22.726;113.540;2023-09-30T08:46:50;12.55;;;8.43;;
78927;SDS011;68322;22.726;113.540;2023-09-30T08:49:18;14.27;;;8.73;;
78927;SDS011;68322;22.726;113.540;2023-09-30T08:51:45;11.35;;;7.90;;
78927;SDS011;68322;22.726;113.540;2023-09-30T08:54:14;11.20;;;8.27;;
78927;SDS011;68322;22.726;113.540;2023-09-30T08:56:49;16.85;;;10.45;;
78927;SDS011;68322;22.726;113.540;2023-09-30T08:59:17;19.55;;;10.23;;
78927;SDS011;68322;22.726;113.540;2023-09-30T09:01:47;19.23;;;12.35;;
78927;SDS011;68322;22.726;113.540;2023-09-30T09:04:15;22.38;;;12.15;;
78927;SDS011;68322;22.726;113.540;2023-09-30T09:06:43;18.75;;;12.60;;
78927;SDS011;68322;22.726;113.540;2023-09-30T09:09:18;20.83;;;14.00;;
78927;SDS011;68322;22.726;113.540;2023-09-30T09:11:47;25.00;;;14.57;;
78927;SDS011;68322;22.726;113.540;2023-09-30T09:14:14;23.25;;;14.85;;
78927;SDS011;68322;22.726;113.540;2023-09-30T09:16:51;25.02;;;15.15;;
78927;SDS011;68322;22.726;113.540;2023-09-30T09:19:21;22.30;;;14.02;;
78927;SDS011;68322;22.726;113.540;2023-09-30T09:21:54;18.30;;;12.95;;
78927;SDS011;68322;22.726;113.540;2023-09-30T09:24:31;20.23;;;12.13;;
78927;SDS011;68322;22.726;113.540;2023-09-30T09:27:07;20.23;;;12.48;;
78927;SDS011;68322;22.726;113.540;2023-09-30T09:29:37;19.45;;;12.77;;
78927;SDS011;68322;22.726;113.540;2023-09-30T09:32:11;20.00;;;12.32;;
78927;SDS011;68322;22.726;113.540;2023-09-30T09:34:38;21.73;;;13.07;;
78927;SDS011;68322;22.726;113.540;2023-09-30T09:37:15;17.63;;;12.73;;
78927;SDS011;68322;22.726;113.540;2023-09-30T09:39:51;17.13;;;11.85;;
78927;SDS011;68322;22.726;113.540;2023-09-30T09:42:31;16.33;;;11.60;;
78927;SDS011;68322;22.726;113.540;2023-09-30T09:45:04;22.55;;;12.80;;
78927;SDS011;68322;22.726;113.540;2023-09-30T09:47:32;16.30;;;11.00;;
78927;SDS011;68322;22.726;113.540;2023-09-30T09:49:59;18.05;;;11.93;;
78927;SDS011;68322;22.726;113.540;2023-09-30T09:52:27;18.25;;;11.95;;
78927;SDS011;68322;22.726;113.540;2023-09-30T09:57:25;20.23;;;13.27;;
78927;SDS011;68322;22.726;113.540;2023-09-30T09:59:52;19.33;;;13.38;;
78927;SDS011;68322;22.726;113.540;2023-09-30T10:02:22;20.75;;;12.10;;
78927;SDS011;68322;22.726;113.540;2023-09-30T10:04:50;19.67;;;11.75;;
78927;SDS011;68322;22.726;113.540;2023-09-30T10:08:00;13.07;;;10.57;;
78927;SDS011;68322;22.726;113.540;2023-09-30T10:10:10;17.25;;;10.18;;
78927;SDS011;68322;22.726;113.540;2023-09-30T10:12:39;17.98;;;10.32;;
78927;SDS011;68322;22.726;113.540;2023-09-30T10:15:38;14.27;;;10.25;;
78927;SDS011;68322;22.726;113.540;2023-09-30T10:18:03;18.92;;;11.05;;
78927;SDS011;68322;22.726;113.540;2023-09-30T10:20:35;16.90;;;11.38;;
78927;SDS011;68322;22.726;113.540;2023-09-30T10:25:45;16.40;;;8.98;;
78927;SDS011;68322;22.726;113.540;2023-09-30T10:28:34;17.23;;;10.38;;
78927;SDS011;68322;22.726;113.540;2023-09-30T10:31:11;24.40;;;10.43;;
78927;SDS011;68322;22.726;113.540;2023-09-30T10:34:23;18.38;;;9.57;;
78927;SDS011;68322;22.726;113.540;2023-09-30T10:36:30;16.80;;;9.32;;
78927;SDS011;68322;22.726;113.540;2023-09-30T10:39:00;16.05;;;9.50;;
78927;SDS011;68322;22.726;113.540;2023-09-30T10:42:11;17.80;;;10.15;;
78927;SDS011;68322;22.726;113.540;2023-09-30T10:46:58;17.27;;;9.70;;
78927;SDS011;68322;22.726;113.540;2023-09-30T10:51:57;19.95;;;10.30;;
78927;SDS011;68322;22.726;113.540;2023-09-30T10:54:26;16.35;;;10.88;;
78927;SDS011;68322;22.726;113.540;2023-09-30T10:56:53;17.77;;;9.68;;
78927;SDS011;68322;22.726;113.540;2023-09-30T10:59:23;19.70;;;9.43;;
78927;SDS011;68322;22.726;113.540;2023-09-30T11:01:57;19.35;;;10.20;;
78927;SDS011;68322;22.726;113.540;2023-09-30T11:04:24;21.73;;;9.40;;
78927;SDS011;68322;22.726;113.540;2023-09-30T11:06:53;17.55;;;10.32;;
78927;SDS011;68322;22.726;113.540;2023-09-30T11:09:20;16.25;;;9.55;;
78927;SDS011;68322;22.726;113.540;2023-09-30T11:14:30;14.68;;;9.35;;
78927;SDS011;68322;22.726;113.540;2023-09-30T11:16:58;13.68;;;9.80;;
78927;SDS011;68322;22.726;113.540;2023-09-30T11:19:26;24.70;;;10.60;;
78927;SDS011;68322;22.726;113.540;2023-09-30T11:21:54;17.42;;;10.25;;
78927;SDS011;68322;22.726;113.540;2023-09-30T11:24:24;17.95;;;10.38;;
78927;SDS011;68322;22.726;113.540;2023-09-30T11:26:54;20.48;;;10.68;;
78927;SDS011;68322;22.726;113.540;2023-09-30T11:29:21;19.75;;;11.15;;
78927;SDS011;68322;22.726;113.540;2023-09-30T11:31:48;17.00;;;11.02;;
78927;SDS011;68322;22.726;113.540;2023-09-30T11:34:16;16.92;;;10.20;;
78927;SDS011;68322;22.726;113.540;2023-09-30T11:36:48;15.73;;;8.68;;
78927;SDS011;68322;22.726;113.540;2023-09-30T11:39:22;17.02;;;10.55;;
78927;SDS011;68322;22.726;113.540;2023-09-30T11:41:51;22.00;;;10.77;;
78927;SDS011;68322;22.726;113.540;2023-09-30T11:44:21;23.52;;;10.88;;
78927;SDS011;68322;22.726;113.540;2023-09-30T11:49:24;16.42;;;9.80;;
78927;SDS011;68322;22.726;113.540;2023-09-30T11:51:54;20.48;;;11.32;;
78927;SDS011;68322;22.726;113.540;2023-09-30T11:57:08;21.80;;;11.10;;
78927;SDS011;68322;22.726;113.540;2023-09-30T12:02:04;25.83;;;11.98;;
78927;SDS011;68322;22.726;113.540;2023-09-30T12:04:34;20.58;;;11.73;;
78927;SDS011;68322;22.726;113.540;2023-09-30T12:07:01;20.08;;;12.00;;
78927;SDS011;68322;22.726;113.540;2023-09-30T12:09:28;18.85;;;11.55;;
78927;SDS011;68322;22.726;113.540;2023-09-30T12:11:55;22.05;;;12.07;;
78927;SDS011;68322;22.726;113.540;2023-09-30T12:14:25;20.45;;;12.77;;
78927;SDS011;68322;22.726;113.540;2023-09-30T12:16:51;22.92;;;12.18;;
78927;SDS011;68322;22.726;113.540;2023-09-30T12:19:18;21.90;;;12.65;;
78927;SDS011;68322;22.726;113.540;2023-09-30T12:21:46;21.42;;;12.73;;
78927;SDS011;68322;22.726;113.540;2023-09-30T12:24:16;16.45;;;12.40;;
78927;SDS011;68322;22.726;113.540;2023-09-30T12:26:49;23.08;;;14.25;;
78927;SDS011;68322;22.726;113.540;2023-09-30T12:31:44;23.77;;;12.77;;
78927;SDS011;68322;22.726;113.540;2023-09-30T12:34:11;23.55;;;13.20;;
78927;SDS011;68322;22.726;113.540;2023-09-30T12:36:38;23.13;;;13.40;;
78927;SDS011;68322;22.726;113.540;2023-09-30T12:39:07;30.77;;;13.70;;
78927;SDS011;68322;22.726;113.540;2023-09-30T12:41:37;19.50;;;13.48;;
78927;SDS011;68322;22.726;113.540;2023-09-30T12:44:05;23.83;;;13.90;;
78927;SDS011;68322;22.726;113.540;2023-09-30T12:46:33;22.85;;;13.88;;
78927;SDS011;68322;22.726;113.540;2023-09-30T12:49:02;27.45;;;15.27;;
78927;SDS011;68322;22.726;113.540;2023-09-30T12:51:30;19.27;;;13.23;;
78927;SDS011;68322;22.726;113.540;2023-09-30T12:53:56;26.10;;;13.95;;
78927;SDS011;68322;22.726;113.540;2023-09-30T12:56:23;22.55;;;13.73;;
78927;SDS011;68322;22.726;113.540;2023-09-30T12:58:50;22.83;;;13.65;;
78927;SDS011;68322;22.726;113.540;2023-09-30T13:01:17;25.35;;;14.60;;
78927;SDS011;68322;22.726;113.540;2023-09-30T13:03:44;28.73;;;15.32;;
78927;SDS011;68322;22.726;113.540;2023-09-30T13:06:11;25.52;;;15.10;;
78927;SDS011;68322;22.726;113.540;2023-09-30T13:08:38;24.15;;;13.77;;
78927;SDS011;68322;22.726;113.540;2023-09-30T13:11:07;25.77;;;14.68;;
78927;SDS011;68322;22.726;113.540;2023-09-30T13:13:33;20.23;;;13.85;;
78927;SDS011;68322;22.726;113.540;2023-09-30T13:16:00;20.70;;;13.82;;
78927;SDS011;68322;22.726;113.540;2023-09-30T13:18:32;24.67;;;13.93;;
78927;SDS011;68322;22.726;113.540;2023-09-30T13:20:59;29.27;;;15.02;;
78927;SDS011;68322;22.726;113.540;2023-09-30T13:23:31;23.70;;;14.45;;
78927;SDS011;68322;22.726;113.540;2023-09-30T13:25:58;23.65;;;13.18;;
78927;SDS011;68322;22.726;113.540;2023-09-30T13:28:26;24.08;;;14.02;;
78927;SDS011;68322;22.726;113.540;2023-09-30T13:33:21;21.40;;;12.38;;
78927;SDS011;68322;22.726;113.540;2023-09-30T13:35:47;18.05;;;11.90;;
78927;SDS011;68322;22.726;113.540;2023-09-30T13:38:14;25.42;;;14.10;;
78927;SDS011;68322;22.726;113.540;2023-09-30T13:40:44;20.02;;;12.40;;
78927;SDS011;68322;22.726;113.540;2023-09-30T13:43:11;28.20;;;13.70;;
78927;SDS011;68322;22.726;113.540;2023-09-30T13:45:40;16.45;;;12.60;;
78927;SDS011;68322;22.726;113.540;2023-09-30T13:48:07;19.85;;;12.55;;
78927;SDS011;68322;22.726;113.540;2023-09-30T13:50:34;21.88;;;12.65;;
78927;SDS011;68322;22.726;113.540;2023-09-30T13:53:00;21.33;;;13.15;;
78927;SDS011;68322;22.726;113.540;2023-09-30T13:55:28;21.88;;;13.02;;
78927;SDS011;68322;22.726;113.540;2023-09-30T13:57:54;21.33;;;12.98;;
78927;SDS011;68322;22.726;113.540;2023-09-30T14:00:21;24.65;;;12.57;;
78927;SDS011;68322;22.726;113.540;2023-09-30T14:02:48;22.20;;;12.90;;
78927;SDS011;68322;22.726;113.540;2023-09-30T14:05:16;20.48;;;11.88;;
78927;SDS011;68322;22.726;113.540;2023-09-30T14:07:45;22.55;;;12.07;;
78927;SDS011;68322;22.726;113.540;2023-09-30T14:10:12;24.15;;;13.57;;
78927;SDS011;68322;22.726;113.540;2023-09-30T14:12:40;20.60;;;11.60;;
78927;SDS011;68322;22.726;113.540;2023-09-30T14:15:07;21.00;;;12.45;;
78927;SDS011;68322;22.726;113.540;2023-09-30T14:17:35;24.08;;;13.27;;
78927;SDS011;68322;22.726;113.540;2023-09-30T14:20:02;22.83;;;12.40;;
78927;SDS011;68322;22.726;113.540;2023-09-30T14:22:30;18.60;;;12.85;;
78927;SDS011;68322;22.726;113.540;2023-09-30T14:24:57;21.70;;;12.52;;
78927;SDS011;68322;22.726;113.540;2023-09-30T14:27:24;21.50;;;12.45;;
78927;SDS011;68322;22.726;113.540;2023-09-30T14:29:51;24.65;;;11.52;;
78927;SDS011;68322;22.726;113.540;2023-09-30T14:32:22;17.73;;;12.63;;
78927;SDS011;68322;22.726;113.540;2023-09-30T14:34:49;29.60;;;12.90;;
78927;SDS011;68322;22.726;113.540;2023-09-30T14:37:17;26.02;;;12.68;;
78927;SDS011;68322;22.726;113.540;2023-09-30T14:39:43;21.58;;;12.02;;
78927;SDS011;68322;22.726;113.540;2023-09-30T14:42:10;19.83;;;11.82;;
78927;SDS011;68322;22.726;113.540;2023-09-30T14:44:37;25.95;;;13.25;;
78927;SDS011;68322;22.726;113.540;2023-09-30T14:47:04;24.13;;;12.82;;
78927;SDS011;68322;22.726;113.540;2023-09-30T14:49:32;24.38;;;13.68;;
78927;SDS011;68322;22.726;113.540;2023-09-30T14:51:58;20.55;;;12.55;;
78927;SDS011;68322;22.726;113.540;2023-09-30T14:54:25;20.33;;;12.98;;
78927;SDS011;68322;22.726;113.540;2023-09-30T14:56:53;23.33;;;13.35;;
78927;SDS011;68322;22.726;113.540;2023-09-30T14:59:21;23.77;;;14.02;;